This is the latest recevied weather packets stored in our database for station/object IZ1UKX-13. If no packets are shown the sender has not sent any weather packets the latest 10 day(s).
| Time | Temp. | Humidity | Pressure | Rain* | Wind** | Luminosity | Snow |
|---|---|---|---|---|---|---|---|
| 1787643624 | 25.56° C | 68% | 1021.8 hPa | 0 mm | - | 0 W/m² | - |
| 1787643324 | 24.44° C | 72% | 1021.8 hPa | 0 mm | - | 0 W/m² | - |
| 1787643024 | 23.89° C | 74% | 1021.8 hPa | 0 mm | - | 0 W/m² | - |
| 1787642724 | 23.89° C | 74% | 1022.3 hPa | 0 mm | - | 0 W/m² | - |
| 1787642424 | 23.33° C | 74% | 1022.3 hPa | 0 mm | - | 0 W/m² | - |
| 1787642125 | 23.33° C | 74% | 1022.3 hPa | 0 mm | - | 0 W/m² | - |
| 1787641824 | 23.89° C | 74% | 1022.3 hPa | 0 mm | - | 0 W/m² | - |
| 1787641524 | 23.89° C | 74% | 1022.3 hPa | 0 mm | - | 0 W/m² | - |
| 1787641224 | 23.89° C | 73% | 1021.8 hPa | 0 mm | - | 0 W/m² | - |
| 1787640924 | 23.89° C | 76% | 1021.8 hPa | 0 mm | - | 0 W/m² | - |
| 1787640624 | 22.78° C | 77% | 1022.3 hPa | 0 mm | - | 0 W/m² | - |
| 1787640324 | 22.78° C | 80% | 1022.3 hPa | 0 mm | - | 0 W/m² | - |
| 1787640024 | 21.67° C | 86% | 1022.3 hPa | 0 mm | - | 0 W/m² | - |
| 1787639724 | 21.11° C | 86% | 1022.7 hPa | 0 mm | - | 0 W/m² | - |
| 1787639424 | 21.11° C | 85% | 1022.7 hPa | 0 mm | - | 0 W/m² | - |
| 1787639124 | 21.11° C | 85% | 1022.7 hPa | 0 mm | - | 0 W/m² | - |
| 1787638824 | 21.11° C | 85% | 1022.7 hPa | 0 mm | - | 0 W/m² | - |
| 1787638524 | 21.11° C | 86% | 1022.7 hPa | 0 mm | - | 0 W/m² | - |
| 1787638224 | 21.11° C | 86% | 1022.7 hPa | 0 mm | - | 0 W/m² | - |
| 1787637925 | 20.56° C | 86% | 1022.7 hPa | 0 mm | - | 0 W/m² | - |
| 1787637624 | 20.56° C | 86% | 1022.7 hPa | 0 mm | - | 0 W/m² | - |
| 1787637324 | 20.56° C | 86% | 1022.7 hPa | 0 mm | - | 0 W/m² | - |
| 1787637024 | 20.56° C | 86% | 1022.7 hPa | 0 mm | - | 0 W/m² | - |
| 1787636724 | 20.56° C | 86% | 1022.7 hPa | 0 mm | - | 0 W/m² | - |
| 1787636424 | 20° C | 86% | 1022.7 hPa | 0 mm | - | 0 W/m² | - |
* Rain latest hour (hover to see other rain measurements)
** Current wind speed in m/s (hover to see current wind gust speed)